Terminal Aerodrome Forecast
Issued by NWS

Home | Current Version | Previous Version | Text Only | Print | Product List | Glossary On
Versions: 1 2 3 4 5 6 7 8 9 10 11 12 13
000
FTUS43 KLSX 191307 AAA
TAFUIN
TAF AMD
KUIN 191307Z 1913/2012 00000KT P6SM FEW250
      TEMPO 1913/1915 5SM BR
     FM192100 17007KT P6SM FEW250
     FM200800 16008KT P6SM BKN040=

USA.gov is the U.S. government's official web portal to all federal, state and local government web resources and services.